Time;durP1;ratioP1;P1;durP2;ratioP2;P2;SDS_P1;SDS_P2;PMS_P1;PMS_P2;Temp;Humidity;BMP_temperature;BMP_pressure;BME280_temperature;BME280_humidity;BME280_pressure;Samples;Min_cycle;Max_cycle;Signal;HPM_P1;HPM_P2
2022/10/04 00:02:24;;;;;;;33.92;30.10;;;18.90;1.00;;;;;;5092338;28;20101;-55
2022/10/04 00:05:04;;;;;;;39.40;29.88;;;19.00;1.00;;;;;;5086545;28;20033;-52
2022/10/04 00:08:01;;;;;;;36.97;29.25;;;19.00;1.00;;;;;;5089570;28;20024;-52
2022/10/04 00:10:32;;;;;;;35.92;29.92;;;19.00;1.00;;;;;;5082143;28;20439;-50
2022/10/04 00:13:00;;;;;;;36.65;28.58;;;19.00;1.00;;;;;;5090808;28;20040;-48
2022/10/04 00:15:29;;;;;;;38.10;29.90;;;19.00;1.00;;;;;;5086878;28;20043;-48
2022/10/04 00:18:38;;;;;;;33.08;29.30;;;18.90;1.00;;;;;;5090829;28;21821;-49
2022/10/04 00:21:05;;;;;;;35.00;28.77;;;18.90;1.00;;;;;;5088394;28;20485;-54
2022/10/04 00:23:37;;;;;;;34.10;27.70;;;18.90;1.00;;;;;;5091900;28;20441;-50
2022/10/04 00:26:24;;;;;;;33.20;29.55;;;18.90;1.00;;;;;;5086396;28;20308;-48
2022/10/04 00:28:51;;;;;;;32.92;28.67;;;18.90;1.00;;;;;;5079281;28;20397;-48
2022/10/04 00:31:19;;;;;;;34.95;28.88;;;18.90;1.00;;;;;;5089916;28;20036;-47
2022/10/04 00:33:52;;;;;;;35.85;29.25;;;18.90;1.00;;;;;;5087914;28;20066;-51
2022/10/04 00:36:24;;;;;;;37.10;28.52;;;18.90;1.00;;;;;;5094265;28;20059;-50
2022/10/04 00:39:08;;;;;;;32.97;29.08;;;18.90;1.00;;;;;;5092540;28;20417;-47
2022/10/04 00:42:10;;;;;;;34.07;28.83;;;18.90;1.00;;;;;;5083181;28;20027;-54
2022/10/04 00:44:52;;;;;;;37.08;29.05;;;18.80;1.00;;;;;;5087063;28;20024;-51
2022/10/04 00:47:34;;;;;;;39.00;29.38;;;18.80;1.00;;;;;;5094357;28;20020;-49
2022/10/04 00:50:14;;;;;;;35.65;28.38;;;18.80;1.00;;;;;;5092976;28;20032;-48
2022/10/04 00:52:48;;;;;;;33.58;28.75;;;18.80;1.00;;;;;;5088914;28;20044;-52
2022/10/04 00:55:41;;;;;;;32.20;27.30;;;18.80;1.00;;;;;;5092169;28;20426;-47
2022/10/04 00:58:17;;;;;;;34.40;28.80;;;18.80;1.00;;;;;;5078216;28;20182;-48
2022/10/04 01:00:46;;;;;;;34.30;27.38;;;18.80;1.00;;;;;;5092048;28;20064;-50
2022/10/04 01:03:19;;;;;;;35.17;29.17;;;18.80;1.00;;;;;;5091627;28;20031;-49
2022/10/04 01:05:50;;;;;;;34.20;27.40;;;18.80;1.00;;;;;;5091647;28;20031;-50
2022/10/04 01:08:24;;;;;;;36.13;29.02;;;18.80;1.00;;;;;;5092217;28;20107;-50
2022/10/04 01:10:59;;;;;;;41.40;29.17;;;18.80;1.00;;;;;;5086214;28;20062;-54
2022/10/04 01:13:29;;;;;;;35.72;27.77;;;18.80;1.00;;;;;;5093115;28;20520;-51
2022/10/04 01:16:00;;;;;;;30.75;27.20;;;18.80;1.00;;;;;;5073951;28;20036;-48
2022/10/04 01:18:28;;;;;;;32.22;27.52;;;18.80;1.00;;;;;;5086650;28;20093;-50
2022/10/04 01:21:15;;;;;;;33.60;26.77;;;18.70;1.00;;;;;;5093304;28;20093;-47
2022/10/04 01:23:43;;;;;;;27.67;23.73;;;18.70;1.00;;;;;;5092478;28;20105;-47
2022/10/04 01:26:33;;;;;;;34.92;26.63;;;18.70;1.00;;;;;;5093863;28;20050;-49
2022/10/04 01:29:27;;;;;;;31.60;27.42;;;18.70;1.00;;;;;;5088900;28;20053;-47
2022/10/04 01:31:57;;;;;;;31.58;25.63;;;18.70;1.00;;;;;;5093201;28;20485;-52
2022/10/04 01:34:25;;;;;;;32.10;25.77;;;18.70;1.00;;;;;;5090651;28;20046;-48
2022/10/04 01:36:54;;;;;;;34.15;26.67;;;18.70;1.00;;;;;;5081391;28;20033;-53
2022/10/04 01:39:22;;;;;;;31.83;26.95;;;18.70;1.00;;;;;;5080856;28;20112;-53
2022/10/04 01:42:10;;;;;;;29.52;24.48;;;18.70;1.00;;;;;;5091586;28;20428;-50
2022/10/04 01:44:36;;;;;;;30.33;25.15;;;18.70;1.00;;;;;;5085703;28;20028;-53
2022/10/04 01:47:17;;;;;;;31.52;26.23;;;18.70;1.00;;;;;;5091388;28;20492;-51
2022/10/04 01:49:45;;;;;;;30.55;25.65;;;18.60;1.00;;;;;;5087435;28;20085;-52
2022/10/04 01:52:21;;;;;;;32.08;25.65;;;18.70;1.00;;;;;;5082903;28;20501;-52
2022/10/04 01:54:52;;;;;;;30.58;26.58;;;18.60;1.00;;;;;;5083871;28;20155;-54
2022/10/04 01:57:23;;;;;;;29.80;25.08;;;18.70;1.00;;;;;;5089517;28;20035;-53
2022/10/04 01:59:56;;;;;;;30.00;24.80;;;18.60;1.00;;;;;;5089476;28;20035;-54
2022/10/04 02:03:03;;;;;;;29.58;24.15;;;18.60;1.00;;;;;;5091922;28;20020;-52
2022/10/04 02:05:41;;;;;;;28.50;25.13;;;18.60;1.00;;;;;;5092059;28;20032;-53
2022/10/04 02:08:17;;;;;;;32.97;24.92;;;18.60;1.00;;;;;;5079707;28;20028;-52
2022/10/04 02:10:44;;;;;;;30.00;25.08;;;18.50;1.00;;;;;;5090520;28;20411;-52
2022/10/04 02:13:17;;;;;;;35.70;26.17;;;18.60;1.00;;;;;;5092749;28;20039;-52
2022/10/04 02:15:46;;;;;;;30.25;24.95;;;18.50;1.00;;;;;;5091765;28;20036;-54
2022/10/04 02:18:13;;;;;;;28.20;24.58;;;18.50;1.00;;;;;;5092916;28;20023;-54
2022/10/04 02:20:41;;;;;;;30.50;24.33;;;18.50;1.00;;;;;;5088294;28;20028;-54
2022/10/04 02:23:09;;;;;;;29.67;25.67;;;18.50;1.00;;;;;;5092561;28;20012;-48
2022/10/04 02:25:36;;;;;;;29.90;24.80;;;18.50;1.00;;;;;;5091266;28;20056;-50
2022/10/04 02:28:02;;;;;;;33.15;26.33;;;18.50;1.00;;;;;;5092274;28;20023;-52
2022/10/04 02:30:33;;;;;;;28.65;24.20;;;18.50;1.00;;;;;;5091240;28;20024;-53
2022/10/04 02:32:59;;;;;;;29.13;23.70;;;18.50;1.00;;;;;;5092325;28;20024;-52
2022/10/04 02:35:29;;;;;;;30.48;23.45;;;18.50;1.00;;;;;;5091214;28;20369;-53
2022/10/04 02:38:22;;;;;;;28.83;24.75;;;18.60;1.00;;;;;;5091793;28;20050;-50
2022/10/04 02:41:19;;;;;;;28.88;23.20;;;18.60;1.00;;;;;;5089820;28;20512;-49
2022/10/04 02:44:10;;;;;;;33.17;24.58;;;18.60;1.00;;;;;;5081836;28;20116;-49
2022/10/04 02:47:05;;;;;;;29.45;24.75;;;18.60;1.00;;;;;;5081114;28;20035;-48
2022/10/04 02:49:31;;;;;;;30.45;24.45;;;18.70;1.00;;;;;;5090033;28;20028;-48
2022/10/04 02:52:07;;;;;;;28.02;24.10;;;18.60;1.00;;;;;;5091831;28;20044;-50
2022/10/04 02:54:37;;;;;;;29.95;23.90;;;18.70;1.00;;;;;;5083423;28;20035;-53
2022/10/04 02:57:03;;;;;;;29.45;24.40;;;18.70;1.00;;;;;;5089281;28;20057;-47
2022/10/04 02:59:31;;;;;;;32.95;24.80;;;18.80;1.00;;;;;;5089313;28;20381;-52
2022/10/04 03:02:01;;;;;;;29.83;24.35;;;18.80;1.00;;;;;;5090849;28;20032;-53
2022/10/04 03:04:33;;;;;;;30.02;24.23;;;18.80;1.00;;;;;;5089280;28;20028;-53
2022/10/04 03:07:00;;;;;;;26.98;23.10;;;18.70;1.00;;;;;;5087101;28;20028;-51
2022/10/04 03:09:27;;;;;;;27.17;24.23;;;18.70;1.00;;;;;;5090841;28;20081;-49
2022/10/04 03:11:53;;;;;;;26.30;22.85;;;18.70;1.00;;;;;;5087484;28;20017;-51
2022/10/04 03:14:22;;;;;;;29.98;23.65;;;18.70;1.00;;;;;;5089896;28;20031;-50
2022/10/04 03:16:52;;;;;;;31.20;23.42;;;18.70;1.00;;;;;;5086663;28;20050;-52
2022/10/04 03:19:23;;;;;;;26.77;22.60;;;18.70;1.00;;;;;;5089819;28;20040;-51
2022/10/04 03:21:52;;;;;;;29.67;23.80;;;18.70;1.00;;;;;;5087569;28;20024;-51
2022/10/04 03:24:27;;;;;;;26.33;23.45;;;18.60;1.00;;;;;;5091855;28;20457;-48
2022/10/04 03:26:55;;;;;;;26.08;22.25;;;18.70;1.00;;;;;;5092675;28;20020;-52
2022/10/04 03:29:23;;;;;;;25.95;22.20;;;18.70;1.00;;;;;;5091640;28;20050;-51
2022/10/04 03:31:51;;;;;;;26.85;22.92;;;18.60;1.00;;;;;;5090884;28;20426;-50
2022/10/04 03:34:21;;;;;;;25.55;20.92;;;18.70;1.00;;;;;;5087802;28;20036;-48
2022/10/04 03:36:48;;;;;;;27.60;22.38;;;18.70;1.00;;;;;;5081434;28;20036;-53
2022/10/04 03:39:32;;;;;;;27.73;21.35;;;18.70;1.00;;;;;;5092526;28;20043;-51
2022/10/04 03:42:01;;;;;;;25.30;21.63;;;18.70;1.00;;;;;;5085865;28;20024;-52
2022/10/04 03:44:27;;;;;;;26.83;22.70;;;18.60;1.00;;;;;;5093194;28;20023;-53
2022/10/04 03:46:54;;;;;;;29.63;21.75;;;18.60;1.00;;;;;;5094286;28;20020;-48
2022/10/04 03:49:36;;;;;;;25.98;22.55;;;18.60;1.00;;;;;;5091494;28;20595;-50
2022/10/04 03:52:03;;;;;;;28.25;22.67;;;18.60;1.00;;;;;;5085984;28;20052;-50
2022/10/04 03:54:30;;;;;;;25.10;20.90;;;18.60;1.00;;;;;;5087672;28;20512;-53
2022/10/04 03:56:57;;;;;;;27.80;20.10;;;18.60;1.00;;;;;;5092789;28;20477;-51
2022/10/04 03:59:25;;;;;;;23.50;19.88;;;18.60;1.00;;;;;;5092820;28;20407;-53
2022/10/04 04:02:14;;;;;;;24.13;20.52;;;18.60;1.00;;;;;;5090239;28;20024;-50
2022/10/04 04:05:00;;;;;;;26.80;19.13;;;18.60;1.00;;;;;;5093029;28;20047;-52
2022/10/04 04:07:33;;;;;;;22.55;18.40;;;18.60;1.00;;;;;;5088435;28;20031;-54
2022/10/04 04:10:21;;;;;;;24.10;19.92;;;18.50;1.00;;;;;;5091421;28;20020;-48
2022/10/04 04:13:10;;;;;;;25.98;19.98;;;18.50;1.00;;;;;;5093797;28;20062;-48
2022/10/04 04:15:40;;;;;;;24.48;18.85;;;18.50;1.00;;;;;;5080860;28;20062;-50
2022/10/04 04:18:14;;;;;;;22.35;19.05;;;18.50;1.00;;;;;;5092442;28;20020;-48
2022/10/04 04:20:41;;;;;;;25.85;19.75;;;18.40;1.00;;;;;;5090716;28;20164;-51
2022/10/04 04:23:13;;;;;;;23.35;19.05;;;18.40;1.00;;;;;;5087937;28;20028;-53
2022/10/04 04:25:45;;;;;;;23.83;19.17;;;18.40;1.00;;;;;;5087263;28;20164;-52
2022/10/04 04:28:24;;;;;;;27.08;18.40;;;18.40;1.00;;;;;;5088791;28;20085;-51
2022/10/04 04:30:55;;;;;;;18.83;16.73;;;18.40;1.00;;;;;;5081202;28;20028;-54
2022/10/04 04:33:28;;;;;;;25.88;18.05;;;18.30;1.00;;;;;;5083133;28;20024;-54
2022/10/04 04:36:01;;;;;;;23.73;18.95;;;18.30;1.00;;;;;;5088783;28;20044;-49
2022/10/04 04:38:27;;;;;;;22.45;17.63;;;18.40;1.00;;;;;;5091926;28;20458;-51
2022/10/04 04:40:56;;;;;;;24.45;19.02;;;18.30;1.00;;;;;;5079538;28;20035;-48
2022/10/04 04:43:25;;;;;;;21.35;17.73;;;18.30;1.00;;;;;;5089633;28;20051;-49
2022/10/04 04:45:52;;;;;;;23.08;18.58;;;18.30;1.00;;;;;;5085422;28;20112;-51
2022/10/04 04:48:20;;;;;;;22.98;18.02;;;18.30;1.00;;;;;;5092936;28;20048;-50
2022/10/04 04:50:52;;;;;;;22.73;18.17;;;18.30;1.00;;;;;;5089284;28;20107;-49
2022/10/04 04:53:23;;;;;;;23.50;18.02;;;18.30;1.00;;;;;;5089130;28;20098;-53
2022/10/04 04:55:58;;;;;;;21.35;17.85;;;18.30;1.00;;;;;;5090284;28;20040;-48
2022/10/04 04:58:28;;;;;;;25.15;19.90;;;18.20;1.00;;;;;;5075850;28;20423;-48
2022/10/04 05:00:57;;;;;;;22.15;18.90;;;18.20;1.00;;;;;;5089394;28;20030;-51
2022/10/04 05:03:22;;;;;;;22.25;17.98;;;18.20;1.00;;;;;;5089424;28;20065;-52
2022/10/04 05:05:49;;;;;;;22.80;17.58;;;18.30;1.00;;;;;;5091624;28;20028;-50
2022/10/04 05:08:26;;;;;;;22.40;18.60;;;18.20;1.00;;;;;;5091500;28;20016;-48
2022/10/04 05:11:11;;;;;;;23.58;18.23;;;18.20;1.00;;;;;;5088358;28;20028;-50
2022/10/04 05:13:39;;;;;;;;;;;18.20;1.00;;;;;;5090365;28;20012;-47
2022/10/04 05:16:15;;;;;;;21.15;17.63;;;18.20;1.00;;;;;;5080368;28;19920;-48
2022/10/04 05:18:41;;;;;;;21.42;17.88;;;18.20;1.00;;;;;;5090223;28;20482;-49
2022/10/04 05:21:13;;;;;;;26.00;18.52;;;18.20;1.00;;;;;;5092754;28;20024;-48
2022/10/04 05:23:39;;;;;;;21.77;18.10;;;18.30;1.00;;;;;;5087640;28;20469;-49
2022/10/04 05:26:10;;;;;;;20.10;16.85;;;18.20;1.00;;;;;;5089831;28;20036;-49
2022/10/04 05:28:39;;;;;;;22.48;17.52;;;18.30;1.00;;;;;;5091524;28;20430;-48
2022/10/04 05:31:27;;;;;;;20.77;17.17;;;18.30;1.00;;;;;;5084834;28;20548;-49
2022/10/04 05:33:59;;;;;;;22.88;17.17;;;18.40;1.00;;;;;;5081786;28;20036;-49
2022/10/04 05:36:43;;;;;;;22.88;16.80;;;18.40;1.00;;;;;;5077476;28;20124;-49
2022/10/04 05:39:36;;;;;;;21.45;17.92;;;18.40;1.00;;;;;;5091638;28;20057;-49
2022/10/04 05:42:11;;;;;;;22.70;17.23;;;18.50;1.00;;;;;;5090107;28;20027;-49
2022/10/04 05:44:50;;;;;;;24.17;17.67;;;18.50;1.00;;;;;;5090322;28;20085;-48
2022/10/04 05:47:21;;;;;;;23.90;17.58;;;18.60;1.00;;;;;;5085787;28;20028;-48
2022/10/04 05:49:47;;;;;;;19.77;15.60;;;18.60;1.00;;;;;;5086614;28;20032;-53
2022/10/04 05:52:35;;;;;;;23.10;18.50;;;18.60;1.00;;;;;;5087953;28;20040;-52
2022/10/04 05:55:15;;;;;;;24.50;17.30;;;18.60;1.00;;;;;;5082294;28;20032;-49
2022/10/04 05:57:55;;;;;;;24.27;19.63;;;18.60;1.00;;;;;;5087821;28;20378;-48
2022/10/04 06:00:30;;;;;;;23.48;18.35;;;18.60;1.00;;;;;;5085852;28;20039;-48
2022/10/04 06:03:30;;;;;;;23.88;19.10;;;18.60;1.00;;;;;;5088384;28;20558;-48
2022/10/04 06:06:21;;;;;;;26.70;19.38;;;18.70;1.00;;;;;;5090333;28;20028;-47
2022/10/04 06:09:15;;;;;;;23.88;18.23;;;18.60;1.00;;;;;;5079897;28;20037;-48
2022/10/04 06:12:18;;;;;;;23.73;19.88;;;18.60;1.00;;;;;;5086462;28;20519;-48
2022/10/04 06:15:02;;;;;;;25.00;19.40;;;18.60;1.00;;;;;;5084599;28;20190;-47
2022/10/04 06:17:39;;;;;;;24.97;20.37;;;18.60;1.00;;;;;;5084814;28;20028;-49
2022/10/04 06:20:26;;;;;;;25.45;20.33;;;18.60;1.00;;;;;;5086519;28;20342;-49
2022/10/04 06:22:59;;;;;;;24.55;20.27;;;18.60;1.00;;;;;;5087296;28;20024;-50
2022/10/04 06:25:35;;;;;;;26.08;20.98;;;18.70;1.00;;;;;;5087676;28;20024;-53
2022/10/04 06:28:20;;;;;;;25.83;20.02;;;18.70;1.00;;;;;;5084751;28;20025;-48
2022/10/04 06:31:10;;;;;;;25.23;18.60;;;18.70;1.00;;;;;;5081801;28;20482;-53
2022/10/04 06:34:02;;;;;;;26.15;20.13;;;18.80;1.00;;;;;;5090634;28;20125;-52
2022/10/04 06:37:00;;;;;;;25.92;21.25;;;18.80;1.00;;;;;;5087597;28;20535;-49
2022/10/04 06:39:56;;;;;;;27.48;21.30;;;18.80;1.00;;;;;;5082977;28;20080;-48
2022/10/04 06:42:21;;;;;;;27.65;21.17;;;18.80;1.00;;;;;;5089215;28;20517;-50
2022/10/04 06:45:04;;;;;;;29.48;22.67;;;18.80;1.00;;;;;;5084239;28;20111;-53
2022/10/04 06:47:51;;;;;;;34.60;23.52;;;18.80;1.00;;;;;;5088260;28;20101;-51
2022/10/04 06:50:47;;;;;;;31.35;22.55;;;18.90;1.00;;;;;;5087263;28;20024;-52
2022/10/04 06:53:16;;;;;;;27.58;22.98;;;18.90;1.00;;;;;;5086239;28;20059;-52
2022/10/04 06:56:03;;;;;;;29.02;24.90;;;19.00;1.00;;;;;;5090835;28;20063;-53
2022/10/04 06:58:52;;;;;;;30.98;24.67;;;18.90;1.00;;;;;;5089444;28;20012;-53
2022/10/04 07:01:37;;;;;;;36.03;25.65;;;18.90;1.00;;;;;;5083231;28;20523;-50
2022/10/04 07:04:20;;;;;;;28.55;25.45;;;19.00;1.00;;;;;;5087972;28;20032;-54
2022/10/04 07:07:25;;;;;;;29.63;23.85;;;19.00;1.00;;;;;;5088404;28;20498;-63
2022/10/04 07:10:02;;;;;;;30.02;25.20;;;19.10;1.00;;;;;;5086171;28;20408;-49
2022/10/04 07:12:31;;;;;;;26.05;22.90;;;19.20;1.00;;;;;;5090646;28;20101;-49
2022/10/04 07:15:01;;;;;;;29.35;24.17;;;19.30;1.00;;;;;;5091675;28;20044;-49
2022/10/04 07:17:34;;;;;;;30.17;23.45;;;19.40;1.00;;;;;;5090714;28;20055;-45
2022/10/04 07:20:01;;;;;;;31.15;24.95;;;19.40;1.00;;;;;;5081123;28;20060;-48
2022/10/04 07:22:42;;;;;;;28.70;23.95;;;19.40;1.00;;;;;;5088676;28;20480;-47
2022/10/04 07:25:24;;;;;;;26.45;23.58;;;19.40;1.00;;;;;;5089200;28;20068;-45
2022/10/04 07:31:04;;;;;;;32.70;25.75;;;19.30;1.00;;;;;;5081315;28;20131;-45
2022/10/04 07:33:34;;;;;;;31.33;24.70;;;19.40;1.00;;;;;;5080933;28;20098;-50
2022/10/04 07:36:04;;;;;;;28.45;24.50;;;19.30;1.00;;;;;;5089468;28;20032;-45
2022/10/04 07:38:33;;;;;;;29.63;23.35;;;19.20;1.00;;;;;;5090314;28;20027;-46
2022/10/04 07:41:22;;;;;;;27.83;24.23;;;19.10;1.00;;;;;;5090522;28;20036;-43
2022/10/04 07:43:50;;;;;;;30.17;24.65;;;19.20;1.00;;;;;;5089037;28;20043;-48
2022/10/04 07:46:46;;;;;;;30.58;24.38;;;19.10;1.00;;;;;;5090358;28;20510;-45
2022/10/04 07:49:18;;;;;;;27.73;23.50;;;19.20;1.00;;;;;;5083706;28;20028;-48
2022/10/04 07:52:05;;;;;;;31.40;24.25;;;19.20;1.00;;;;;;5090300;28;20074;-48
2022/10/04 07:55:01;;;;;;;29.48;24.25;;;19.30;1.00;;;;;;5090128;28;20069;-48
2022/10/04 07:57:40;;;;;;;31.50;22.52;;;19.30;1.00;;;;;;5090289;28;20031;-51
2022/10/04 08:00:19;;;;;;;26.38;23.10;;;19.20;1.00;;;;;;5091571;28;20028;-45
2022/10/04 08:03:07;;;;;;;30.92;25.00;;;19.30;1.00;;;;;;5089409;28;20358;-52
2022/10/04 08:05:41;;;;;;;28.98;20.60;;;19.30;1.00;;;;;;5090278;28;20043;-56
2022/10/04 08:08:18;;;;;;;;;;;19.30;1.00;;;;;;5081317;28;20157;-48
2022/10/04 08:11:05;;;;;;;26.40;20.60;;;19.30;1.00;;;;;;5093239;28;19946;-58
2022/10/04 08:13:40;;;;;;;23.30;20.10;;;19.30;1.00;;;;;;5093297;28;20105;-53
2022/10/04 08:16:29;;;;;;;27.80;20.00;;;19.30;1.00;;;;;;5092952;28;20035;-50
2022/10/04 08:19:34;;;;;;;27.20;19.60;;;19.40;1.00;;;;;;5091717;28;20474;-47
2022/10/04 08:22:22;;;;;;;25.40;19.88;;;19.40;1.00;;;;;;5085769;28;20023;-43
2022/10/04 08:25:31;;;;;;;20.33;17.92;;;19.30;1.00;;;;;;5076556;28;20450;-46
2022/10/04 08:31:26;;;;;;;20.80;18.67;;;19.40;1.00;;;;;;5010144;28;20412;-64
2022/10/04 08:33:58;;;;;;;18.90;17.00;;;19.40;1.00;;;;;;5061921;28;20408;-64
2022/10/04 08:36:53;;;;;;;20.08;17.73;;;19.40;1.00;;;;;;5093161;28;20124;-64
2022/10/04 08:39:30;;;;;;;19.52;14.88;;;19.50;1.00;;;;;;5090837;28;20118;-65
2022/10/04 08:42:08;;;;;;;22.00;18.45;;;19.50;1.00;;;;;;5090830;28;20043;-55
2022/10/04 08:44:59;;;;;;;22.05;18.40;;;19.50;1.00;;;;;;5093874;28;20035;-54
2022/10/04 08:47:55;;;;;;;21.40;17.00;;;19.50;1.00;;;;;;5093041;28;20027;-62
2022/10/04 08:50:58;;;;;;;19.48;15.60;;;19.50;1.00;;;;;;5094060;28;20024;-58
2022/10/04 08:54:00;;;;;;;22.58;17.35;;;19.60;1.00;;;;;;5088911;28;20044;-57
2022/10/04 08:56:45;;;;;;;20.58;16.58;;;19.70;1.00;;;;;;5092563;28;20493;-45
2022/10/04 08:59:26;;;;;;;21.95;16.20;;;19.80;1.00;;;;;;5081291;28;20366;-46
2022/10/04 09:02:23;;;;;;;18.08;15.20;;;19.90;1.00;;;;;;5085078;28;20432;-47
2022/10/04 09:05:03;;;;;;;18.10;16.13;;;20.00;1.00;;;;;;5094060;28;20035;-48
2022/10/04 09:07:41;;;;;;;18.88;15.98;;;20.10;1.00;;;;;;5090422;28;20101;-51
2022/10/04 09:10:21;;;;;;;20.88;16.40;;;20.20;1.00;;;;;;5093960;28;20498;-57
2022/10/04 09:13:32;;;;;;;22.65;15.75;;;20.10;1.00;;;;;;5092584;28;20034;-53
2022/10/04 09:16:16;;;;;;;18.90;16.63;;;20.20;1.00;;;;;;5078837;28;20528;-51
2022/10/04 09:18:52;;;;;;;21.30;16.43;;;20.40;1.00;;;;;;5092860;28;20424;-51
2022/10/04 09:21:25;;;;;;;19.10;16.30;;;20.50;1.00;;;;;;5091610;28;20020;-51
2022/10/04 09:24:39;;;;;;;18.05;16.05;;;20.60;1.00;;;;;;5092963;28;20434;-48
2022/10/04 09:27:29;;;;;;;18.83;16.25;;;20.70;1.00;;;;;;5072033;28;20046;-55
2022/10/04 09:30:18;;;;;;;19.00;15.98;;;20.70;1.00;;;;;;5092414;28;20024;-55
2022/10/04 09:33:08;;;;;;;20.40;16.90;;;20.80;1.00;;;;;;5086834;28;20016;-53
2022/10/04 09:35:39;;;;;;;21.80;17.33;;;20.90;1.00;;;;;;5092715;28;20035;-56
2022/10/04 09:38:22;;;;;;;21.73;16.55;;;21.00;1.00;;;;;;5090343;28;20085;-53
2022/10/04 09:41:25;;;;;;;19.52;17.42;;;21.00;1.00;;;;;;5079297;28;20117;-55
2022/10/04 09:44:00;;;;;;;24.80;19.63;;;21.00;1.00;;;;;;5080794;28;20033;-54
2022/10/04 09:47:15;;;;;;;18.80;16.90;;;21.00;1.00;;;;;;5075376;28;20024;-52
2022/10/04 09:49:58;;;;;;;19.65;17.08;;;21.10;1.00;;;;;;5090902;28;20032;-50
2022/10/04 09:52:39;;;;;;;20.23;17.00;;;21.10;1.00;;;;;;5091089;28;20051;-52
2022/10/04 09:55:30;;;;;;;21.20;17.52;;;21.20;1.00;;;;;;5091008;28;20096;-48
2022/10/04 09:58:42;;;;;;;20.52;18.40;;;21.20;1.00;;;;;;5091038;28;20031;-56
2022/10/04 10:01:32;;;;;;;21.25;18.95;;;21.20;1.00;;;;;;5063998;28;20040;-58
2022/10/04 10:04:16;;;;;;;21.20;19.02;;;21.30;1.00;;;;;;5099124;28;20039;-54
2022/10/04 10:07:02;;;;;;;19.67;17.50;;;21.30;1.00;;;;;;5080890;28;20024;-47
2022/10/04 10:15:43;;;;;;;21.40;19.10;;;21.40;1.00;;;;;;5083599;28;20043;-46
2022/10/04 10:18:38;;;;;;;23.13;20.52;;;21.40;1.00;;;;;;5091391;28;20042;-48
2022/10/04 10:21:09;;;;;;;;;;;21.50;1.00;;;;;;5067361;28;20474;-52
2022/10/04 10:23:56;;;;;;;19.58;17.40;;;21.50;1.00;;;;;;5091337;28;19926;-47
2022/10/04 10:26:39;;;;;;;20.85;18.88;;;21.70;1.00;;;;;;5091074;28;20022;-51
2022/10/04 10:29:23;;;;;;;24.70;20.92;;;21.80;1.00;;;;;;5092325;28;20035;-49
2022/10/04 10:31:55;;;;;;;21.30;19.10;;;21.90;1.00;;;;;;5091041;28;20032;-50
2022/10/04 10:34:46;;;;;;;23.00;20.70;;;21.90;1.00;;;;;;5091861;28;20058;-48
2022/10/04 10:37:26;;;;;;;22.48;20.08;;;22.00;1.00;;;;;;5087318;28;20559;-51
2022/10/04 10:40:19;;;;;;;22.98;20.23;;;22.00;1.00;;;;;;5092263;28;20036;-48
2022/10/04 10:43:29;;;;;;;26.15;21.65;;;22.10;1.00;;;;;;5090297;28;20028;-60
2022/10/04 10:46:04;;;;;;;24.42;21.77;;;22.20;1.00;;;;;;5074845;28;20052;-60
2022/10/04 10:49:05;;;;;;;25.73;22.98;;;22.20;1.00;;;;;;5091069;28;20020;-60
2022/10/04 10:51:54;;;;;;;29.83;25.27;;;22.30;1.00;;;;;;5089399;28;20055;-60
2022/10/04 10:54:46;;;;;;;23.40;19.10;;;22.40;1.00;;;;;;5091750;28;20020;-59
2022/10/04 10:57:34;;;;;;;31.52;23.70;;;22.50;1.00;;;;;;5079314;28;20040;-64
2022/10/04 11:00:45;;;;;;;32.67;28.92;;;22.60;1.00;;;;;;5079704;28;20032;-66
2022/10/04 11:03:34;;;;;;;33.28;29.73;;;22.50;1.00;;;;;;5048840;28;20032;-54
2022/10/04 11:06:22;;;;;;;31.55;28.17;;;22.50;1.00;;;;;;5091063;28;20028;-53
2022/10/04 11:09:15;;;;;;;37.50;31.95;;;22.60;1.00;;;;;;5072237;28;20158;-51
2022/10/04 11:12:13;;;;;;;39.20;34.72;;;22.60;1.00;;;;;;5088937;28;20095;-54
2022/10/04 11:15:05;;;;;;;36.40;32.80;;;22.70;1.00;;;;;;5089577;28;20368;-55
2022/10/04 11:18:11;;;;;;;36.28;32.70;;;22.80;1.00;;;;;;5090476;28;20024;-56
2022/10/04 11:20:53;;;;;;;37.03;32.95;;;22.90;1.00;;;;;;5079630;28;20012;-56
2022/10/04 11:23:55;;;;;;;35.30;31.55;;;22.90;1.00;;;;;;5086319;28;20036;-55
2022/10/04 11:26:54;;;;;;;34.40;30.80;;;22.90;1.00;;;;;;5086806;28;20366;-55
2022/10/04 11:29:31;;;;;;;33.20;29.77;;;23.00;1.00;;;;;;5060532;28;20051;-55
2022/10/04 11:31:59;;;;;;;38.95;34.83;;;23.20;1.00;;;;;;5089748;28;20078;-53
2022/10/04 11:34:46;;;;;;;41.45;37.15;;;23.20;1.00;;;;;;5085499;28;20079;-52
2022/10/04 11:37:15;;;;;;;41.08;36.78;;;23.30;1.00;;;;;;5084257;28;20024;-50
2022/10/04 11:39:53;;;;;;;41.38;36.90;;;23.30;1.00;;;;;;5091319;28;20017;-51
2022/10/04 11:42:39;;;;;;;39.88;35.88;;;23.40;1.00;;;;;;5090309;28;20494;-53
2022/10/04 11:45:47;;;;;;;41.00;36.75;;;23.40;1.00;;;;;;5093746;28;20024;-54
2022/10/04 11:48:28;;;;;;;43.55;38.67;;;23.50;1.00;;;;;;5078446;28;20036;-51
2022/10/04 11:51:29;;;;;;;40.88;36.60;;;23.60;1.00;;;;;;5083333;28;20462;-54
2022/10/04 11:54:15;;;;;;;41.45;37.08;;;23.70;1.00;;;;;;5090205;28;20070;-53
2022/10/04 11:57:04;;;;;;;42.80;38.40;;;23.80;1.00;;;;;;5093719;28;20036;-54
2022/10/04 11:59:54;;;;;;;42.45;38.20;;;23.70;1.00;;;;;;5091765;28;20024;-50
2022/10/04 12:02:54;;;;;;;41.42;37.30;;;23.60;1.00;;;;;;5092340;28;20465;-55
2022/10/04 12:05:39;;;;;;;40.97;37.03;;;23.50;1.00;;;;;;5076789;28;21591;-50
2022/10/04 12:08:13;;;;;;;;;;;23.30;1.00;;;;;;5095361;28;20028;-49
2022/10/04 12:10:43;;;;;;;40.53;36.20;;;23.30;1.00;;;;;;5092693;28;20329;-50
2022/10/04 12:13:31;;;;;;;37.40;33.47;;;23.30;1.00;;;;;;5094969;28;20020;-48
2022/10/04 12:16:33;;;;;;;39.42;35.35;;;23.50;1.00;;;;;;5091113;28;20035;-54
2022/10/04 12:19:18;;;;;;;37.25;33.25;;;23.50;1.00;;;;;;5086222;28;20043;-49
2022/10/04 12:21:57;;;;;;;37.92;34.03;;;23.60;1.00;;;;;;5085020;28;20052;-50
2022/10/04 12:24:49;;;;;;;33.60;30.30;;;23.70;1.00;;;;;;5090126;28;20021;-51
2022/10/04 12:28:10;;;;;;;37.38;33.30;;;23.90;1.00;;;;;;5087656;28;20036;-51
2022/10/04 12:30:40;;;;;;;35.30;31.65;;;24.00;1.00;;;;;;5082944;28;20032;-50
2022/10/04 12:33:13;;;;;;;36.10;32.25;;;24.10;1.00;;;;;;5094696;28;20073;-56
2022/10/04 12:35:57;;;;;;;36.00;31.67;;;24.20;1.00;;;;;;5093133;28;20455;-57
2022/10/04 12:38:23;;;;;;;38.20;32.22;;;24.30;1.00;;;;;;5094444;28;20024;-58
2022/10/04 12:41:23;;;;;;;35.05;31.40;;;24.50;1.00;;;;;;5093246;28;20027;-55
2022/10/04 12:44:20;;;;;;;32.63;29.23;;;24.60;1.00;;;;;;5076514;28;20040;-59
2022/10/04 12:47:04;;;;;;;36.47;32.65;;;24.60;1.00;;;;;;5087151;28;20108;-57
2022/10/04 12:49:42;;;;;;;34.38;30.55;;;24.70;1.00;;;;;;5094302;28;20028;-56
2022/10/04 12:52:17;;;;;;;35.25;31.52;;;24.60;1.00;;;;;;5089228;28;20047;-57
2022/10/04 12:54:51;;;;;;;34.67;30.92;;;24.80;1.00;;;;;;5091909;28;20066;-58
2022/10/04 12:57:28;;;;;;;34.17;30.58;;;24.80;1.00;;;;;;5092217;28;20036;-51
2022/10/04 13:00:23;;;;;;;32.90;29.50;;;24.90;1.00;;;;;;5091444;28;20032;-59
2022/10/04 13:03:20;;;;;;;34.03;30.45;;;25.00;1.00;;;;;;5085075;28;20188;-60
2022/10/04 13:05:46;;;;;;;30.17;26.98;;;24.90;1.00;;;;;;5091815;28;20385;-52
2022/10/04 13:08:30;;;;;;;33.47;28.23;;;24.80;1.00;;;;;;5093571;28;20020;-47
2022/10/04 13:11:11;;;;;;;29.08;26.08;;;25.00;1.00;;;;;;5089876;28;20032;-55
2022/10/04 13:13:53;;;;;;;33.28;29.67;;;25.00;1.00;;;;;;5093481;28;20048;-49
2022/10/04 13:16:45;;;;;;;35.05;31.00;;;25.00;1.00;;;;;;5091990;28;20428;-47
2022/10/04 13:19:38;;;;;;;30.55;27.40;;;24.90;1.00;;;;;;5093715;28;20390;-59
2022/10/04 13:22:15;;;;;;;31.40;28.20;;;25.00;1.00;;;;;;5089806;28;20024;-55
2022/10/04 13:24:56;;;;;;;33.28;29.92;;;24.90;1.00;;;;;;5093464;28;20145;-55
2022/10/04 13:27:53;;;;;;;32.53;29.27;;;25.00;1.00;;;;;;5092706;28;20024;-54
2022/10/04 13:30:26;;;;;;;29.67;26.50;;;25.00;1.00;;;;;;5087666;28;20027;-50
2022/10/04 13:33:19;;;;;;;30.15;26.92;;;24.90;1.00;;;;;;5087361;28;20101;-55
2022/10/04 13:36:03;;;;;;;33.30;26.98;;;24.80;1.00;;;;;;5092224;28;20524;-57
2022/10/04 13:38:35;;;;;;;29.88;26.77;;;24.70;1.00;;;;;;5093148;28;20137;-57
2022/10/04 13:41:41;;;;;;;34.65;29.48;;;24.60;1.00;;;;;;5091853;28;20328;-50
2022/10/04 13:44:07;;;;;;;31.10;27.63;;;24.80;1.00;;;;;;5050499;28;20040;-57
2022/10/04 13:46:46;;;;;;;31.27;27.80;;;24.70;1.00;;;;;;5083611;28;20028;-59
2022/10/04 13:49:46;;;;;;;31.02;27.80;;;24.60;1.00;;;;;;5093065;28;20046;-57
2022/10/04 13:58:56;;;;;;;32.20;25.35;;;24.60;1.00;;;;;;5087210;28;20338;-61
2022/10/04 14:01:36;;;;;;;31.30;28.10;;;24.60;1.00;;;;;;5091053;28;20048;-53
2022/10/04 14:04:37;;;;;;;33.15;27.40;;;24.60;1.00;;;;;;5092648;28;20068;-53
2022/10/04 14:07:21;;;;;;;28.95;25.83;;;24.70;1.00;;;;;;5091052;28;20077;-50